Time;durP1;ratioP1;P1;durP2;ratioP2;P2;SDS_P1;SDS_P2;PMS_P1;PMS_P2;Temp;Humidity;BMP_temperature;BMP_pressure;BME280_temperature;BME280_humidity;BME280_pressure;Samples;Min_cycle;Max_cycle;Signal;HPM_P1;HPM_P2
2022/06/13 00:01:29;;;;;;;4.07;2.30;;;19.40;72.20;;;;;;5113508;28;20434;-64
2022/06/13 00:03:56;;;;;;;5.10;2.40;;;19.50;74.40;;;;;;5113873;28;20523;-64
2022/06/13 00:06:25;;;;;;;3.70;2.13;;;19.50;75.10;;;;;;5113294;28;20499;-64
2022/06/13 00:08:52;;;;;;;5.73;2.67;;;19.60;76.60;;;;;;5113219;28;20430;-64
2022/06/13 00:11:23;;;;;;;9.43;4.23;;;19.70;78.30;;;;;;5113265;28;20517;-65
2022/06/13 00:13:53;;;;;;;7.20;4.47;;;19.70;80.40;;;;;;5112645;28;20987;-64
2022/06/13 00:16:20;;;;;;;5.13;3.20;;;19.60;82.00;;;;;;5112768;28;20860;-65
2022/06/13 00:18:48;;;;;;;7.13;2.67;;;19.60;83.70;;;;;;5113297;28;20441;-64
2022/06/13 00:21:17;;;;;;;3.77;2.40;;;19.50;83.30;;;;;;5112873;28;20434;-65
2022/06/13 00:23:46;;;;;;;5.20;3.00;;;19.50;84.10;;;;;;5113368;28;20461;-65
2022/06/13 00:26:14;;;;;;;3.67;2.30;;;19.40;85.50;;;;;;5112705;28;20444;-64
2022/06/13 00:28:41;;;;;;;3.37;1.93;;;19.40;86.40;;;;;;5113078;28;20481;-65
2022/06/13 00:31:08;;;;;;;3.90;2.80;;;19.40;87.10;;;;;;5112877;28;20434;-65
2022/06/13 00:33:35;;;;;;;5.07;2.30;;;19.40;87.10;;;;;;5112535;28;20481;-64
2022/06/13 00:36:02;;;;;;;4.73;2.10;;;19.40;87.10;;;;;;5112902;28;20434;-64
2022/06/13 00:38:29;;;;;;;2.53;1.87;;;19.40;87.40;;;;;;5112789;28;20549;-65
2022/06/13 00:40:58;;;;;;;3.27;2.33;;;19.30;87.90;;;;;;5113049;28;20491;-65
2022/06/13 00:43:26;;;;;;;3.00;1.87;;;19.30;88.60;;;;;;5112383;28;20910;-65
2022/06/13 00:45:53;;;;;;;3.60;2.07;;;19.30;89.00;;;;;;5112942;28;20438;-64
2022/06/13 00:48:27;;;;;;;3.17;1.70;;;19.30;88.20;;;;;;5112798;28;20835;-64
2022/06/13 00:50:58;;;;;;;4.33;1.70;;;19.20;88.40;;;;;;5112311;28;20434;-65
2022/06/13 00:53:27;;;;;;;4.10;2.40;;;19.20;89.40;;;;;;5092389;28;20466;-64
2022/06/13 00:55:57;;;;;;;3.37;1.90;;;19.00;89.40;;;;;;5103429;28;20936;-65
2022/06/13 00:58:29;;;;;;;3.73;1.93;;;19.00;90.70;;;;;;5112926;28;20430;-64
2022/06/13 01:00:59;;;;;;;2.90;2.20;;;19.00;91.10;;;;;;5112197;28;20929;-65
2022/06/13 01:03:27;;;;;;;3.90;2.10;;;18.90;92.40;;;;;;5112844;28;20449;-64
2022/06/13 01:05:57;;;;;;;4.07;2.27;;;18.90;92.10;;;;;;5112519;28;20952;-64
2022/06/13 01:08:27;;;;;;;4.73;2.57;;;18.90;92.20;;;;;;5111960;28;20488;-64
2022/06/13 01:14:03;;;;;;;5.67;2.50;;;18.90;92.50;;;;;;5116838;28;20562;-64
2022/06/13 01:16:40;;;;;;;4.10;2.60;;;18.80;93.00;;;;;;5116254;28;20428;-64
2022/06/13 01:19:37;;;;;;;3.00;2.10;;;18.80;93.10;;;;;;5117547;28;20438;-64
2022/06/13 01:22:25;;;;;;;3.60;2.30;;;18.80;92.70;;;;;;5082619;28;20430;-64
2022/06/13 01:25:13;;;;;;;3.50;2.50;;;18.90;92.60;;;;;;5116217;28;20509;-65
2022/06/13 01:28:07;;;;;;;3.63;2.10;;;18.90;92.80;;;;;;5096253;28;20802;-64
2022/06/13 01:31:10;;;;;;;3.73;2.50;;;19.00;92.30;;;;;;5109565;28;20427;-65
2022/06/13 01:33:44;;;;;;;3.57;2.27;;;18.90;92.40;;;;;;5116615;28;20513;-64
2022/06/13 01:36:35;;;;;;;3.60;1.83;;;18.90;92.50;;;;;;5116110;28;20487;-64
2022/06/13 01:39:22;;;;;;;4.00;2.33;;;18.90;92.00;;;;;;5116354;28;20449;-65
2022/06/13 01:42:02;;;;;;;3.87;2.27;;;18.90;92.30;;;;;;5109734;28;20973;-65
2022/06/13 01:44:40;;;;;;;3.03;2.17;;;18.90;92.80;;;;;;5116327;28;20461;-64
2022/06/13 01:47:14;;;;;;;2.97;2.20;;;18.90;93.00;;;;;;5116054;28;20448;-64
2022/06/13 01:49:52;;;;;;;3.23;2.30;;;18.90;93.10;;;;;;5116212;28;20434;-65
2022/06/13 01:52:26;;;;;;;2.90;2.00;;;18.90;93.20;;;;;;5116122;28;20896;-65
2022/06/13 01:54:57;;;;;;;4.00;2.40;;;18.90;93.10;;;;;;5115654;28;20473;-64
2022/06/13 01:57:34;;;;;;;3.00;2.10;;;18.90;93.00;;;;;;5115387;28;20441;-65
2022/06/13 02:00:08;;;;;;;5.03;2.00;;;18.90;93.10;;;;;;5113588;28;20457;-64
2022/06/13 02:02:43;;;;;;;3.10;2.27;;;18.90;93.20;;;;;;5115824;28;21331;-65
2022/06/13 02:05:16;;;;;;;4.33;2.60;;;18.90;94.10;;;;;;5116059;28;20434;-65
2022/06/13 02:07:47;;;;;;;4.30;2.03;;;18.90;94.20;;;;;;5115561;28;20426;-65
2022/06/13 02:10:20;;;;;;;3.47;2.00;;;18.90;94.30;;;;;;5115968;28;20441;-65
2022/06/13 02:12:51;;;;;;;3.77;2.20;;;18.90;94.40;;;;;;5115481;28;20426;-65
2022/06/13 02:15:23;;;;;;;2.63;1.83;;;18.90;94.50;;;;;;5115442;28;20835;-64
2022/06/13 02:17:56;;;;;;;3.70;2.33;;;18.90;94.40;;;;;;5115509;28;20438;-64
2022/06/13 02:20:28;;;;;;;3.80;2.53;;;18.90;94.40;;;;;;5115329;28;20995;-65
2022/06/13 02:22:58;;;;;;;3.47;2.57;;;18.90;94.30;;;;;;5115589;28;20442;-65
2022/06/13 02:25:30;;;;;;;3.10;2.10;;;18.90;94.30;;;;;;5115598;28;20856;-64
2022/06/13 02:28:02;;;;;;;3.73;2.07;;;18.90;94.20;;;;;;5115521;28;20461;-64
2022/06/13 02:30:32;;;;;;;2.80;2.00;;;18.90;94.00;;;;;;5114925;28;20430;-65
2022/06/13 02:33:04;;;;;;;3.97;2.20;;;18.90;94.10;;;;;;5114721;28;20523;-65
2022/06/13 02:35:35;;;;;;;4.53;2.27;;;18.90;94.10;;;;;;5115521;28;20521;-65
2022/06/13 02:38:06;;;;;;;5.97;2.70;;;18.90;94.10;;;;;;5114991;28;20473;-65
2022/06/13 02:40:44;;;;;;;2.70;1.87;;;18.90;94.20;;;;;;5115482;28;20470;-65
2022/06/13 02:43:16;;;;;;;3.80;2.13;;;18.90;94.20;;;;;;5115047;28;20928;-64
2022/06/13 02:45:52;;;;;;;3.77;2.30;;;18.90;94.20;;;;;;5115504;28;20434;-65
2022/06/13 02:48:27;;;;;;;4.90;2.40;;;18.90;94.30;;;;;;5114911;28;20516;-65
2022/06/13 02:51:02;;;;;;;3.57;2.30;;;18.90;94.40;;;;;;5114682;28;20505;-65
2022/06/13 02:53:36;;;;;;;4.60;2.77;;;18.90;94.30;;;;;;5115039;28;20527;-65
2022/06/13 02:56:11;;;;;;;3.23;2.23;;;18.90;94.20;;;;;;5114676;28;20526;-65
2022/06/13 02:58:50;;;;;;;2.33;1.60;;;18.90;94.20;;;;;;5114874;28;20426;-65
2022/06/13 03:01:23;;;;;;;5.13;2.83;;;18.90;94.20;;;;;;5114597;28;20442;-65
2022/06/13 03:03:58;;;;;;;6.40;3.20;;;18.90;94.30;;;;;;5115074;28;20438;-65
2022/06/13 03:06:31;;;;;;;4.00;2.30;;;18.90;94.50;;;;;;5114178;28;20513;-64
2022/06/13 03:09:04;;;;;;;4.57;1.70;;;19.00;94.50;;;;;;5114557;28;20618;-65
2022/06/13 03:11:39;;;;;;;4.90;2.47;;;18.90;94.40;;;;;;5114028;28;20438;-65
2022/06/13 03:14:14;;;;;;;5.10;2.67;;;18.90;94.50;;;;;;5114931;28;20481;-64
2022/06/13 03:16:48;;;;;;;3.10;1.80;;;18.90;94.80;;;;;;5114380;28;20448;-65
2022/06/13 03:19:22;;;;;;;4.00;1.80;;;18.80;95.30;;;;;;5114576;28;20437;-65
2022/06/13 03:21:53;;;;;;;6.40;2.10;;;18.60;96.00;;;;;;5114021;28;20442;-66
2022/06/13 03:24:24;;;;;;;3.17;1.60;;;18.50;97.00;;;;;;5113837;28;20474;-65
2022/06/13 03:26:57;;;;;;;3.60;1.53;;;18.40;97.20;;;;;;5114309;28;20529;-65
2022/06/13 03:29:32;;;;;;;7.07;2.23;;;18.30;97.20;;;;;;5113711;28;20475;-66
2022/06/13 03:32:06;;;;;;;2.97;2.00;;;18.30;97.20;;;;;;5114423;28;20434;-64
2022/06/13 03:34:39;;;;;;;4.03;1.53;;;18.30;97.20;;;;;;5113344;28;20530;-65
2022/06/13 03:37:11;;;;;;;5.63;2.17;;;18.30;97.20;;;;;;5114078;28;20441;-66
2022/06/13 03:39:43;;;;;;;2.70;1.73;;;18.30;97.10;;;;;;5113497;28;20434;-65
2022/06/13 03:42:16;;;;;;;3.07;1.53;;;18.30;97.10;;;;;;5113700;28;20445;-65
2022/06/13 03:44:50;;;;;;;2.70;1.87;;;18.30;97.60;;;;;;5114188;28;20999;-64
2022/06/13 03:47:23;;;;;;;4.70;3.50;;;18.30;97.50;;;;;;5113533;28;20434;-65
2022/06/13 03:49:59;;;;;;;2.90;2.27;;;18.30;97.40;;;;;;5113907;28;20430;-68
2022/06/13 03:52:28;;;;;;;3.70;2.20;;;18.20;97.40;;;;;;5093534;28;20895;-65
2022/06/13 03:55:01;;;;;;;3.10;2.27;;;18.20;97.80;;;;;;5093441;28;21029;-68
2022/06/13 03:57:32;;;;;;;3.70;2.00;;;18.10;98.10;;;;;;5099846;28;20434;-64
2022/06/13 04:00:06;;;;;;;3.77;2.40;;;18.10;98.30;;;;;;5113742;28;20446;-64
2022/06/13 04:02:35;;;;;;;3.03;2.13;;;18.00;98.60;;;;;;5113789;28;20495;-66
2022/06/13 04:05:05;;;;;;;4.23;2.83;;;17.90;99.00;;;;;;5093747;28;20860;-65
2022/06/13 04:07:35;;;;;;;5.30;2.27;;;17.90;99.70;;;;;;5093514;28;20492;-65
2022/06/13 04:10:05;;;;;;;5.53;2.47;;;17.90;99.90;;;;;;5113519;28;20442;-64
2022/06/13 04:12:58;;;;;;;5.60;2.67;;;17.90;99.80;;;;;;5113874;28;20521;-65
2022/06/13 04:15:49;;;;;;;2.90;2.13;;;17.90;99.90;;;;;;5107497;28;20508;-65
2022/06/13 04:18:34;;;;;;;3.77;2.63;;;17.90;99.90;;;;;;5093620;28;20438;-65
2022/06/13 04:21:11;;;;;;;5.73;2.80;;;17.80;99.90;;;;;;5098973;28;20441;-65
2022/06/13 04:23:51;;;;;;;3.27;2.53;;;17.80;99.90;;;;;;5113839;28;20438;-65
2022/06/13 04:26:22;;;;;;;4.20;2.80;;;17.90;99.90;;;;;;5113221;28;20516;-65
2022/06/13 04:28:55;;;;;;;4.00;3.10;;;18.00;99.90;;;;;;5113862;28;20457;-65
2022/06/13 04:31:25;;;;;;;4.40;2.97;;;18.00;99.90;;;;;;5112730;28;20462;-66
2022/06/13 04:34:00;;;;;;;5.33;2.80;;;18.00;99.90;;;;;;5102273;28;20462;-65
2022/06/13 04:36:31;;;;;;;3.90;2.53;;;18.10;99.90;;;;;;5113552;28;20447;-65
2022/06/13 04:39:01;;;;;;;3.20;2.60;;;18.20;99.90;;;;;;5113311;28;20518;-65
2022/06/13 04:41:33;;;;;;;4.10;3.00;;;18.30;99.90;;;;;;5113457;28;20434;-66
2022/06/13 04:44:04;;;;;;;4.70;2.70;;;18.50;99.90;;;;;;5112586;28;20925;-65
2022/06/13 04:46:34;;;;;;;4.97;3.30;;;18.60;99.90;;;;;;5112463;28;20489;-65
2022/06/13 04:49:07;;;;;;;4.03;3.10;;;18.70;99.90;;;;;;5112702;28;20956;-65
2022/06/13 04:51:41;;;;;;;4.20;2.80;;;18.70;99.90;;;;;;5112494;28;20434;-65
2022/06/13 04:54:17;;;;;;;3.67;2.27;;;18.80;99.50;;;;;;5092919;28;20439;-65
2022/06/13 04:56:46;;;;;;;4.43;3.03;;;18.80;99.50;;;;;;5096759;28;20457;-65
2022/06/13 04:59:14;;;;;;;9.33;3.90;;;18.80;99.00;;;;;;5113211;28;20927;-65
2022/06/13 05:01:45;;;;;;;3.63;2.93;;;18.80;99.00;;;;;;5112523;28;20473;-66
2022/06/13 05:04:15;;;;;;;3.83;2.70;;;18.80;99.20;;;;;;5113433;28;20827;-66
2022/06/13 05:06:47;;;;;;;5.20;2.73;;;18.80;99.30;;;;;;5112491;28;20855;-69
2022/06/13 05:09:17;;;;;;;6.10;2.97;;;18.80;99.10;;;;;;5113332;28;20442;-65
2022/06/13 05:11:50;;;;;;;3.93;3.00;;;18.70;98.60;;;;;;5112811;28;20442;-65
2022/06/13 05:14:24;;;;;;;4.30;3.03;;;18.70;99.00;;;;;;5112968;28;20437;-65
2022/06/13 05:17:11;;;;;;;3.90;2.83;;;18.60;99.10;;;;;;5112720;28;20433;-65
2022/06/13 05:19:59;;;;;;;6.40;3.63;;;18.60;99.50;;;;;;5112865;28;20503;-65
2022/06/13 05:22:45;;;;;;;4.63;3.03;;;18.60;99.60;;;;;;5110120;28;20781;-65
2022/06/13 05:25:36;;;;;;;4.60;3.03;;;18.60;99.90;;;;;;5112048;28;20426;-66
2022/06/13 05:28:04;;;;;;;5.93;3.63;;;18.40;99.90;;;;;;5086051;28;20475;-65
2022/06/13 05:30:31;;;;;;;4.90;3.23;;;18.50;99.90;;;;;;5093138;28;20449;-65
2022/06/13 05:32:58;;;;;;;4.43;3.87;;;18.50;99.90;;;;;;5092840;28;20439;-65
2022/06/13 05:35:28;;;;;;;7.77;3.73;;;18.60;99.90;;;;;;5109028;28;20465;-65
2022/06/13 05:37:59;;;;;;;4.00;2.97;;;18.60;99.90;;;;;;5112829;28;20438;-65
2022/06/13 05:40:26;;;;;;;4.57;3.30;;;18.60;99.90;;;;;;5112151;28;20438;-65
2022/06/13 05:42:54;;;;;;;4.23;2.97;;;18.60;99.90;;;;;;5112605;28;20458;-65
2022/06/13 05:45:23;;;;;;;4.40;2.77;;;18.70;99.90;;;;;;5112966;28;20438;-65
2022/06/13 05:47:52;;;;;;;3.73;3.40;;;18.80;99.90;;;;;;5113079;28;20452;-65
2022/06/13 05:50:21;;;;;;;4.90;3.40;;;18.90;99.90;;;;;;5112848;28;20504;-66
2022/06/13 05:52:49;;;;;;;4.80;3.60;;;19.00;99.90;;;;;;5112768;28;20920;-65
2022/06/13 05:55:17;;;;;;;4.47;3.03;;;19.00;99.90;;;;;;5112661;28;20476;-65
2022/06/13 05:57:44;;;;;;;3.53;3.23;;;19.10;99.90;;;;;;5112120;28;20441;-66
2022/06/13 06:00:17;;;;;;;3.63;3.00;;;19.20;99.90;;;;;;5110989;28;20553;-67
2022/06/13 06:02:44;;;;;;;3.97;2.80;;;19.10;99.90;;;;;;5112564;28;20430;-66
2022/06/13 06:05:19;;;;;;;3.70;3.07;;;19.20;99.90;;;;;;5115047;28;20438;-67
2022/06/13 06:07:46;;;;;;;3.40;3.03;;;19.20;99.70;;;;;;5115741;28;20429;-66
2022/06/13 06:10:22;;;;;;;3.60;2.50;;;19.10;99.70;;;;;;5114971;28;20434;-65
2022/06/13 06:12:49;;;;;;;2.90;2.03;;;19.10;99.90;;;;;;5114633;28;20437;-66
2022/06/13 06:15:17;;;;;;;3.43;2.40;;;19.10;99.30;;;;;;5115718;28;20477;-66
2022/06/13 06:17:43;;;;;;;4.03;2.77;;;19.00;99.20;;;;;;5113855;28;20523;-66
2022/06/13 06:20:17;;;;;;;4.80;2.37;;;19.00;99.20;;;;;;5116555;28;20615;-65
2022/06/13 06:22:44;;;;;;;3.57;2.80;;;19.00;99.80;;;;;;5114936;28;20438;-65
2022/06/13 06:25:11;;;;;;;3.93;2.63;;;19.10;99.60;;;;;;5116055;28;20537;-65
2022/06/13 06:27:40;;;;;;;4.53;2.90;;;19.10;99.60;;;;;;5114744;28;20994;-65
2022/06/13 06:30:08;;;;;;;7.77;2.60;;;19.10;99.20;;;;;;5116102;28;20438;-65
2022/06/13 06:32:35;;;;;;;5.20;3.27;;;19.10;99.30;;;;;;5116314;28;20430;-65
2022/06/13 06:35:02;;;;;;;5.13;3.27;;;19.20;99.80;;;;;;5115965;28;20488;-65
2022/06/13 06:37:28;;;;;;;4.97;2.73;;;19.30;99.80;;;;;;5115768;28;20438;-65
2022/06/13 06:39:58;;;;;;;3.47;2.50;;;19.20;99.30;;;;;;5115613;28;20879;-65
2022/06/13 06:42:25;;;;;;;4.00;2.53;;;19.30;99.50;;;;;;5116067;28;20524;-65
2022/06/13 06:44:53;;;;;;;3.97;2.80;;;19.30;99.10;;;;;;5115895;28;20438;-65
2022/06/13 06:47:20;;;;;;;2.93;2.07;;;19.30;98.80;;;;;;5115895;28;20443;-65
2022/06/13 06:49:48;;;;;;;3.67;2.60;;;19.20;99.00;;;;;;5116077;28;20448;-65
2022/06/13 06:52:15;;;;;;;3.00;2.33;;;19.30;99.10;;;;;;5115533;28;20434;-66
2022/06/13 07:00:14;;;;;;;4.70;2.47;;;19.90;99.90;;;;;;5115775;28;20750;-65
2022/06/13 07:02:41;;;;;;;3.13;2.00;;;20.00;99.30;;;;;;5115987;28;20769;-66
2022/06/13 07:05:08;;;;;;;4.17;2.67;;;20.00;98.20;;;;;;5115745;28;20438;-65
2022/06/13 07:07:35;;;;;;;4.70;2.83;;;20.00;98.30;;;;;;5114782;28;20442;-66
2022/06/13 07:10:02;;;;;;;3.40;2.20;;;20.10;98.70;;;;;;5115483;28;20526;-65
2022/06/13 07:12:29;;;;;;;3.60;2.40;;;20.20;98.10;;;;;;5115588;28;20500;-66
2022/06/13 07:14:56;;;;;;;3.73;2.40;;;20.10;97.60;;;;;;5115133;28;20521;-65
2022/06/13 07:17:26;;;;;;;4.00;2.30;;;20.20;97.80;;;;;;5115255;28;20974;-65
2022/06/13 07:19:53;;;;;;;3.93;1.90;;;20.30;97.40;;;;;;5115083;28;20951;-65
2022/06/13 07:22:22;;;;;;;3.80;2.43;;;20.30;97.20;;;;;;5114816;28;20437;-65
2022/06/13 07:24:49;;;;;;;4.50;3.00;;;20.40;97.40;;;;;;5115476;28;20445;-65
2022/06/13 07:27:17;;;;;;;6.90;2.20;;;20.50;97.50;;;;;;5114912;28;20441;-65
2022/06/13 07:29:44;;;;;;;2.83;2.10;;;20.50;97.40;;;;;;5115262;28;20525;-67
2022/06/13 07:32:16;;;;;;;3.87;2.33;;;20.60;97.40;;;;;;5114803;28;20517;-66
2022/06/13 07:34:46;;;;;;;3.07;1.90;;;20.70;97.40;;;;;;5115019;28;20441;-65
2022/06/13 07:38:16;;;;;;;4.00;1.97;;;20.70;97.50;;;;;;5114799;28;20478;-66
2022/06/13 07:40:04;;;;;;;4.03;2.10;;;20.90;97.30;;;;;;5114816;28;20438;-65
2022/06/13 07:42:36;;;;;;;3.30;2.37;;;20.90;97.00;;;;;;5114707;28;20438;-65
2022/06/13 07:45:04;;;;;;;4.80;2.40;;;21.10;97.50;;;;;;5114916;28;20438;-65
2022/06/13 07:47:31;;;;;;;3.20;2.10;;;21.30;97.60;;;;;;5114912;28;20856;-65
2022/06/13 07:49:59;;;;;;;4.03;2.53;;;21.50;97.40;;;;;;5114745;28;20440;-65
2022/06/13 07:52:26;;;;;;;4.20;2.30;;;21.80;97.40;;;;;;5114391;28;20965;-65
2022/06/13 07:54:53;;;;;;;6.13;2.27;;;22.10;97.30;;;;;;5114696;28;20480;-65
2022/06/13 07:57:20;;;;;;;5.20;2.40;;;22.30;96.10;;;;;;5114454;28;20477;-65
2022/06/13 07:59:47;;;;;;;3.17;2.47;;;22.50;95.40;;;;;;5114696;28;20460;-65
2022/06/13 08:02:16;;;;;;;2.30;1.63;;;22.60;94.60;;;;;;5114310;28;20547;-66
2022/06/13 08:04:43;;;;;;;4.10;1.97;;;22.60;94.30;;;;;;5113971;28;20470;-66
2022/06/13 08:07:13;;;;;;;3.13;1.80;;;22.50;93.40;;;;;;5114256;28;20517;-65
2022/06/13 08:09:40;;;;;;;3.43;2.10;;;22.40;93.20;;;;;;5114204;28;20444;-66
2022/06/13 08:12:08;;;;;;;3.60;2.10;;;22.40;93.20;;;;;;5114456;28;20529;-65
2022/06/13 08:14:35;;;;;;;3.00;2.20;;;22.40;93.10;;;;;;5114456;28;20924;-65
2022/06/13 08:17:02;;;;;;;6.40;3.30;;;22.50;93.20;;;;;;5114247;28;20480;-65
2022/06/13 08:19:29;;;;;;;5.83;2.20;;;22.80;93.50;;;;;;5113488;28;20795;-65
2022/06/13 08:21:56;;;;;;;5.87;2.30;;;23.00;92.50;;;;;;5113556;28;20442;-65
2022/06/13 08:24:24;;;;;;;4.10;2.27;;;23.10;91.50;;;;;;5114059;28;20512;-66
2022/06/13 08:26:51;;;;;;;5.03;2.53;;;23.30;91.40;;;;;;5114060;28;20441;-65
2022/06/13 08:29:18;;;;;;;4.43;2.40;;;23.40;90.60;;;;;;5113976;28;20973;-66
2022/06/13 08:31:45;;;;;;;2.93;2.43;;;23.50;90.30;;;;;;5113692;28;20441;-66
2022/06/13 08:34:11;;;;;;;4.70;2.47;;;23.60;90.50;;;;;;5114050;28;20437;-66
2022/06/13 08:36:38;;;;;;;3.47;2.10;;;23.80;90.40;;;;;;5114204;28;20494;-65
2022/06/13 08:39:06;;;;;;;5.07;2.80;;;24.00;89.20;;;;;;5114021;28;20537;-69
2022/06/13 08:41:42;;;;;;;5.00;2.47;;;24.10;88.80;;;;;;5113991;28;20443;-65
2022/06/13 08:44:45;;;;;;;3.37;2.30;;;24.30;88.30;;;;;;5114054;28;20437;-65
2022/06/13 08:47:20;;;;;;;4.10;2.20;;;24.60;86.10;;;;;;5106996;28;20531;-66
2022/06/13 08:49:56;;;;;;;3.33;2.60;;;24.70;83.30;;;;;;5113911;28;20448;-66
2022/06/13 08:52:27;;;;;;;3.77;2.80;;;24.80;79.40;;;;;;5113525;28;20524;-65
2022/06/13 08:55:09;;;;;;;5.97;3.80;;;24.80;80.00;;;;;;5113716;28;20446;-66
2022/06/13 08:57:44;;;;;;;6.90;3.67;;;24.80;78.80;;;;;;5113535;28;20474;-65
2022/06/13 09:00:14;;;;;;;3.20;2.83;;;25.00;79.60;;;;;;5113472;28;20768;-66
2022/06/13 09:02:48;;;;;;;4.07;2.10;;;25.10;77.70;;;;;;5113765;28;20449;-66
2022/06/13 09:05:20;;;;;;;6.37;2.63;;;25.20;76.30;;;;;;5113322;28;20532;-66
2022/06/13 09:07:53;;;;;;;3.20;2.47;;;25.20;74.50;;;;;;5113527;28;20437;-66
2022/06/13 09:10:26;;;;;;;4.70;2.27;;;25.10;73.30;;;;;;5113486;28;20526;-66
2022/06/13 09:12:59;;;;;;;3.03;1.93;;;25.10;74.40;;;;;;5113470;28;20434;-66
2022/06/13 09:15:32;;;;;;;6.70;3.00;;;25.10;74.70;;;;;;5113470;28;20440;-67
2022/06/13 09:18:07;;;;;;;5.20;2.50;;;24.90;73.90;;;;;;5113327;28;20430;-65
2022/06/13 09:20:41;;;;;;;4.37;3.33;;;24.70;72.80;;;;;;5113583;28;20433;-66
2022/06/13 09:23:17;;;;;;;4.20;3.00;;;24.30;72.00;;;;;;5113605;28;20445;-65
2022/06/13 09:25:49;;;;;;;6.40;2.70;;;24.00;73.30;;;;;;5113597;28;20448;-65
2022/06/13 09:28:21;;;;;;;6.43;2.97;;;23.70;73.80;;;;;;5113220;28;20469;-65
2022/06/13 09:30:52;;;;;;;5.50;3.40;;;23.50;74.40;;;;;;5113069;28;20447;-65
2022/06/13 09:33:26;;;;;;;4.30;3.10;;;23.20;74.60;;;;;;5117646;28;20514;-66
2022/06/13 09:35:57;;;;;;;5.90;3.03;;;23.00;75.70;;;;;;5117102;28;20557;-66
2022/06/13 09:38:27;;;;;;;9.87;2.73;;;22.80;76.30;;;;;;5117409;28;20447;-65
2022/06/13 09:41:07;;;;;;;4.40;3.47;;;22.60;77.20;;;;;;5117221;28;20813;-65
2022/06/13 09:43:49;;;;;;;6.23;3.30;;;22.50;78.40;;;;;;5117467;28;20529;-65
2022/06/13 09:46:22;;;;;;;3.40;2.50;;;22.30;78.90;;;;;;5117185;28;20779;-65
2022/06/13 09:49:08;;;;;;;3.60;2.70;;;22.30;79.40;;;;;;5117048;28;20443;-65
2022/06/13 09:51:47;;;;;;;3.87;2.90;;;22.20;78.70;;;;;;5117050;28;20473;-65
2022/06/13 09:54:24;;;;;;;6.90;3.20;;;22.20;79.40;;;;;;5116567;28;20513;-66
2022/06/13 09:57:01;;;;;;;3.30;2.83;;;22.20;79.90;;;;;;5117003;28;20680;-65
2022/06/13 09:59:44;;;;;;;4.20;2.47;;;22.30;80.90;;;;;;5116889;28;20473;-65
2022/06/13 10:02:17;;;;;;;8.00;2.93;;;22.50;81.60;;;;;;5117203;28;20780;-66
2022/06/13 10:04:54;;;;;;;3.73;2.43;;;22.80;81.30;;;;;;5116961;28;20435;-66
2022/06/13 10:07:23;;;;;;;3.83;2.23;;;23.00;77.00;;;;;;5116706;28;20458;-66
2022/06/13 10:09:57;;;;;;;4.73;2.17;;;23.10;71.80;;;;;;5116205;28;20446;-66
2022/06/13 10:12:39;;;;;;;4.30;2.10;;;23.40;68.60;;;;;;5116710;28;20838;-65
2022/06/13 10:15:23;;;;;;;5.27;3.13;;;23.70;67.90;;;;;;5116737;28;20937;-65
2022/06/13 10:18:10;;;;;;;3.80;2.20;;;24.00;67.20;;;;;;5116526;28;20578;-65
2022/06/13 10:20:46;;;;;;;4.50;1.80;;;24.20;64.00;;;;;;5116677;28;20537;-65
2022/06/13 10:23:19;;;;;;;2.50;1.63;;;24.20;63.00;;;;;;5116664;28;20528;-68
2022/06/13 10:25:57;;;;;;;3.67;1.70;;;24.20;62.70;;;;;;5116654;28;20441;-65
2022/06/13 10:28:48;;;;;;;3.53;2.10;;;24.20;57.60;;;;;;5116309;28;20500;-65
2022/06/13 10:31:25;;;;;;;4.53;2.57;;;23.90;56.90;;;;;;5116310;28;20452;-65
2022/06/13 10:34:03;;;;;;;3.23;2.53;;;23.60;56.70;;;;;;5116365;28;20447;-65
2022/06/13 10:36:40;;;;;;;4.50;2.27;;;23.50;57.80;;;;;;5116227;28;20483;-65
2022/06/13 10:39:09;;;;;;;3.33;2.23;;;23.60;58.90;;;;;;5115887;28;20445;-65
2022/06/13 10:41:40;;;;;;;4.07;2.13;;;23.80;59.00;;;;;;5116032;28;20494;-65
2022/06/13 10:44:11;;;;;;;5.07;2.87;;;24.00;59.70;;;;;;5115004;28;20440;-65
2022/06/13 10:46:44;;;;;;;4.97;2.17;;;24.10;59.60;;;;;;5115658;28;20999;-65
2022/06/13 10:49:16;;;;;;;4.90;2.10;;;24.20;58.80;;;;;;5112715;28;20434;-70
2022/06/13 10:51:46;;;;;;;7.20;2.97;;;24.20;58.00;;;;;;5115000;28;20516;-65
2022/06/13 10:54:18;;;;;;;5.43;2.10;;;24.20;55.40;;;;;;5115402;28;20437;-67
2022/06/13 10:56:50;;;;;;;4.43;2.30;;;24.20;55.50;;;;;;5115291;28;20477;-66
2022/06/13 10:59:23;;;;;;;10.90;2.80;;;24.20;55.70;;;;;;5114303;28;20912;-66
2022/06/13 11:02:00;;;;;;;4.23;2.87;;;24.50;57.30;;;;;;5115881;28;20447;-65
2022/06/13 11:04:28;;;;;;;7.13;2.37;;;24.80;56.60;;;;;;5114526;28;20436;-65
2022/06/13 11:06:57;;;;;;;5.83;2.10;;;25.00;55.90;;;;;;5114719;28;20434;-65
2022/06/13 11:09:34;;;;;;;5.20;2.10;;;25.20;54.70;;;;;;5113071;28;20946;-66
2022/06/13 11:12:04;;;;;;;4.73;2.00;;;25.10;50.80;;;;;;5114277;28;20469;-65
2022/06/13 11:14:36;;;;;;;5.23;2.00;;;24.90;51.40;;;;;;5111106;28;20438;-65
2022/06/13 11:22:58;;;;;;;4.00;2.07;;;25.40;52.50;;;;;;5115378;28;20475;-66
2022/06/13 11:25:28;;;;;;;7.13;2.60;;;25.80;52.70;;;;;;5115292;28;20446;-65
2022/06/13 11:28:04;;;;;;;4.73;1.70;;;26.00;50.80;;;;;;5115123;28;20462;-66
2022/06/13 11:30:41;;;;;;;6.93;2.03;;;26.20;51.60;;;;;;5115301;28;20434;-65
2022/06/13 11:33:19;;;;;;;5.93;2.10;;;26.50;52.90;;;;;;5115299;28;20437;-65
2022/06/13 11:35:48;;;;;;;6.27;2.50;;;26.90;51.00;;;;;;5115143;28;20461;-66
2022/06/13 11:38:22;;;;;;;3.93;1.97;;;26.90;47.40;;;;;;5114673;28;20576;-66
2022/06/13 11:41:01;;;;;;;9.67;3.00;;;26.90;48.20;;;;;;5114866;27;20441;-65
2022/06/13 11:43:35;;;;;;;4.37;2.10;;;27.00;48.80;;;;;;5114660;28;20449;-65
2022/06/13 11:46:06;;;;;;;6.73;1.90;;;27.00;47.20;;;;;;5114946;28;20445;-65
2022/06/13 11:48:35;;;;;;;3.50;1.77;;;26.90;45.00;;;;;;5115005;28;20453;-65
2022/06/13 11:51:04;;;;;;;4.90;2.60;;;26.90;45.90;;;;;;5114760;28;20777;-66
2022/06/13 11:53:38;;;;;;;4.10;2.00;;;26.80;46.90;;;;;;5114596;28;20448;-66
2022/06/13 11:56:09;;;;;;;5.90;2.10;;;26.90;48.10;;;;;;5114797;28;20851;-65
2022/06/13 11:58:41;;;;;;;4.10;1.70;;;26.80;45.80;;;;;;5114787;28;21001;-65
2022/06/13 12:01:19;;;;;;;5.87;1.73;;;26.80;46.60;;;;;;5114808;28;20434;-66
2022/06/13 12:03:59;;;;;;;4.13;1.80;;;26.70;45.70;;;;;;5114760;28;20434;-66
2022/06/13 12:06:27;;;;;;;3.67;1.40;;;26.50;45.00;;;;;;5114566;28;20534;-66
2022/06/13 12:09:03;;;;;;;7.57;2.70;;;26.50;45.40;;;;;;5114510;28;20850;-67
2022/06/13 12:11:31;;;;;;;6.73;2.63;;;26.50;44.00;;;;;;5114481;28;20542;-65
2022/06/13 12:13:59;;;;;;;8.90;2.50;;;26.40;44.40;;;;;;5114292;28;20438;-66
2022/06/13 12:16:35;;;;;;;8.10;3.10;;;26.40;44.20;;;;;;5114217;28;20485;-65
2022/06/13 12:19:17;;;;;;;4.67;1.60;;;26.30;43.60;;;;;;5114411;28;20456;-65
2022/06/13 12:21:49;;;;;;;6.47;1.87;;;26.30;43.30;;;;;;5114240;28;20784;-66
2022/06/13 12:24:23;;;;;;;4.63;1.70;;;26.20;43.80;;;;;;5114151;28;20442;-65
2022/06/13 12:26:56;;;;;;;4.63;1.87;;;26.10;42.50;;;;;;5114148;28;20939;-65
2022/06/13 12:29:42;;;;;;;4.40;1.57;;;26.10;42.50;;;;;;5113781;28;20548;-66
2022/06/13 12:32:16;;;;;;;5.67;2.07;;;26.00;42.20;;;;;;5114279;28;20434;-65
2022/06/13 12:34:55;;;;;;;3.30;1.73;;;25.90;41.20;;;;;;5114132;28;20499;-65
2022/06/13 12:37:32;;;;;;;8.47;2.40;;;25.90;42.80;;;;;;5114087;28;20477;-65
2022/06/13 12:40:16;;;;;;;5.57;1.90;;;25.90;43.50;;;;;;5113479;28;20446;-66
2022/06/13 12:42:55;;;;;;;3.13;2.10;;;25.80;41.70;;;;;;5114129;28;20434;-66
2022/06/13 12:45:50;;;;;;;3.43;1.40;;;25.70;41.60;;;;;;5113957;28;20520;-65
2022/06/13 12:48:38;;;;;;;4.67;1.70;;;25.60;41.10;;;;;;5113865;28;20441;-66
2022/06/13 12:51:22;;;;;;;2.83;1.47;;;25.50;41.90;;;;;;5113550;28;20430;-65
2022/06/13 12:54:26;;;;;;;6.70;1.70;;;25.60;42.00;;;;;;5113831;28;20525;-66
2022/06/13 12:56:58;;;;;;;3.20;1.60;;;25.60;43.10;;;;;;5113715;28;20525;-65
2022/06/13 12:59:39;;;;;;;2.30;1.30;;;25.50;41.90;;;;;;5113814;28;20442;-65
2022/06/13 13:02:37;;;;;;;3.33;1.83;;;25.60;42.40;;;;;;5113775;28;20535;-65
2022/06/13 13:05:23;;;;;;;6.17;1.07;;;25.50;41.30;;;;;;5113442;28;20438;-65
2022/06/13 13:08:01;;;;;;;4.00;1.60;;;25.50;42.20;;;;;;5113294;28;20533;-65
2022/06/13 13:10:37;;;;;;;4.33;2.30;;;25.60;40.20;;;;;;5113595;28;20518;-65
2022/06/13 13:13:40;;;;;;;7.23;1.80;;;25.60;41.50;;;;;;5113623;28;20787;-66
2022/06/13 13:16:12;;;;;;;8.40;1.80;;;25.70;42.90;;;;;;5113464;28;20532;-65
2022/06/13 13:18:49;;;;;;;4.00;1.80;;;25.60;41.50;;;;;;5113348;28;20472;-65
2022/06/13 13:21:21;;;;;;;4.77;1.73;;;25.60;41.40;;;;;;5113555;28;20441;-66
2022/06/13 13:24:03;;;;;;;5.43;2.20;;;25.60;42.80;;;;;;5113526;28;20920;-65
2022/06/13 13:26:47;;;;;;;4.13;2.10;;;25.60;42.30;;;;;;5113492;28;20781;-65
2022/06/13 13:29:22;;;;;;;6.77;1.50;;;25.60;40.00;;;;;;5113416;28;20814;-65
2022/06/13 13:31:55;;;;;;;4.60;1.67;;;25.50;39.90;;;;;;5113510;28;20922;-66
2022/06/13 13:34:38;;;;;;;4.33;1.40;;;25.50;41.00;;;;;;5112901;28;20423;-65